sensor_id;sensor_type;location;lat;lon;timestamp;P1;durP1;ratioP1;P2;durP2;ratioP2
74519;SDS011;63002;48.134;-1.948;2023-07-02T05:02:33;4.72;;;1.20;;
74519;SDS011;63002;48.134;-1.948;2023-07-02T05:04:59;4.97;;;1.50;;
74519;SDS011;63002;48.134;-1.948;2023-07-02T05:07:25;5.47;;;1.30;;
74519;SDS011;63002;48.134;-1.948;2023-07-02T05:09:50;3.83;;;1.17;;
74519;SDS011;63002;48.134;-1.948;2023-07-02T05:12:18;5.03;;;1.48;;
74519;SDS011;63002;48.134;-1.948;2023-07-02T05:14:44;4.57;;;1.13;;
74519;SDS011;63002;48.134;-1.948;2023-07-02T05:17:11;4.75;;;1.42;;
74519;SDS011;63002;48.134;-1.948;2023-07-02T05:19:39;5.90;;;1.60;;
74519;SDS011;63002;48.134;-1.948;2023-07-02T05:22:06;4.32;;;1.20;;
74519;SDS011;63002;48.134;-1.948;2023-07-02T05:24:32;4.03;;;1.25;;
74519;SDS011;63002;48.134;-1.948;2023-07-02T05:26:57;4.53;;;1.23;;
74519;SDS011;63002;48.134;-1.948;2023-07-02T05:29:23;4.40;;;1.00;;
74519;SDS011;63002;48.134;-1.948;2023-07-02T05:31:49;4.82;;;1.23;;
74519;SDS011;63002;48.134;-1.948;2023-07-02T05:34:15;5.50;;;1.23;;
74519;SDS011;63002;48.134;-1.948;2023-07-02T05:36:41;4.60;;;1.20;;
74519;SDS011;63002;48.134;-1.948;2023-07-02T05:39:06;4.97;;;1.17;;
74519;SDS011;63002;48.134;-1.948;2023-07-02T05:41:32;4.60;;;1.10;;
74519;SDS011;63002;48.134;-1.948;2023-07-02T05:43:58;4.00;;;1.10;;
74519;SDS011;63002;48.134;-1.948;2023-07-02T05:46:24;4.32;;;1.17;;
74519;SDS011;63002;48.134;-1.948;2023-07-02T05:48:50;4.75;;;1.30;;
74519;SDS011;63002;48.134;-1.948;2023-07-02T05:51:22;4.75;;;1.00;;
74519;SDS011;63002;48.134;-1.948;2023-07-02T05:53:49;5.10;;;1.33;;
74519;SDS011;63002;48.134;-1.948;2023-07-02T05:56:16;4.22;;;1.00;;
74519;SDS011;63002;48.134;-1.948;2023-07-02T05:58:42;4.63;;;1.33;;
74519;SDS011;63002;48.134;-1.948;2023-07-02T06:01:07;4.90;;;1.10;;
74519;SDS011;63002;48.134;-1.948;2023-07-02T06:03:35;4.38;;;1.10;;
74519;SDS011;63002;48.134;-1.948;2023-07-02T06:06:01;4.28;;;1.17;;
74519;SDS011;63002;48.134;-1.948;2023-07-02T06:08:27;3.75;;;0.98;;
74519;SDS011;63002;48.134;-1.948;2023-07-02T06:10:52;4.57;;;1.00;;
74519;SDS011;63002;48.134;-1.948;2023-07-02T06:13:18;5.35;;;1.33;;
74519;SDS011;63002;48.134;-1.948;2023-07-02T06:15:44;4.37;;;1.10;;
74519;SDS011;63002;48.134;-1.948;2023-07-02T06:18:11;3.35;;;1.00;;
74519;SDS011;63002;48.134;-1.948;2023-07-02T06:20:37;4.65;;;1.40;;
74519;SDS011;63002;48.134;-1.948;2023-07-02T06:23:03;4.03;;;1.00;;
74519;SDS011;63002;48.134;-1.948;2023-07-02T06:25:29;3.40;;;1.13;;
74519;SDS011;63002;48.134;-1.948;2023-07-02T06:27:55;3.40;;;1.02;;
74519;SDS011;63002;48.134;-1.948;2023-07-02T06:30:23;6.35;;;1.50;;
74519;SDS011;63002;48.134;-1.948;2023-07-02T06:32:50;3.97;;;1.05;;
74519;SDS011;63002;48.134;-1.948;2023-07-02T06:35:16;4.25;;;1.13;;
74519;SDS011;63002;48.134;-1.948;2023-07-02T06:37:42;4.38;;;0.98;;
74519;SDS011;63002;48.134;-1.948;2023-07-02T06:40:08;4.05;;;1.20;;
74519;SDS011;63002;48.134;-1.948;2023-07-02T06:42:35;3.40;;;0.90;;
74519;SDS011;63002;48.134;-1.948;2023-07-02T06:45:01;4.05;;;0.98;;
74519;SDS011;63002;48.134;-1.948;2023-07-02T06:47:28;4.10;;;0.95;;
74519;SDS011;63002;48.134;-1.948;2023-07-02T06:49:54;5.28;;;1.20;;
74519;SDS011;63002;48.134;-1.948;2023-07-02T06:52:20;4.10;;;1.13;;
74519;SDS011;63002;48.134;-1.948;2023-07-02T06:54:45;4.88;;;1.02;;
74519;SDS011;63002;48.134;-1.948;2023-07-02T06:57:12;4.10;;;1.20;;
74519;SDS011;63002;48.134;-1.948;2023-07-02T06:59:38;4.05;;;1.30;;
74519;SDS011;63002;48.134;-1.948;2023-07-02T07:02:04;3.75;;;1.20;;
74519;SDS011;63002;48.134;-1.948;2023-07-02T07:04:29;3.63;;;0.98;;
74519;SDS011;63002;48.134;-1.948;2023-07-02T07:06:55;3.43;;;0.93;;
74519;SDS011;63002;48.134;-1.948;2023-07-02T07:09:21;3.72;;;1.10;;
74519;SDS011;63002;48.134;-1.948;2023-07-02T07:11:47;4.63;;;1.00;;
74519;SDS011;63002;48.134;-1.948;2023-07-02T07:14:13;5.90;;;1.25;;
74519;SDS011;63002;48.134;-1.948;2023-07-02T07:16:39;3.63;;;1.10;;
74519;SDS011;63002;48.134;-1.948;2023-07-02T07:19:05;3.57;;;1.17;;
74519;SDS011;63002;48.134;-1.948;2023-07-02T07:21:32;4.28;;;1.00;;
74519;SDS011;63002;48.134;-1.948;2023-07-02T07:24:00;3.53;;;0.90;;
74519;SDS011;63002;48.134;-1.948;2023-07-02T07:26:26;3.40;;;0.93;;
74519;SDS011;63002;48.134;-1.948;2023-07-02T07:28:52;5.83;;;1.30;;
74519;SDS011;63002;48.134;-1.948;2023-07-02T07:31:20;3.92;;;1.08;;
74519;SDS011;63002;48.134;-1.948;2023-07-02T07:33:46;3.80;;;1.10;;
74519;SDS011;63002;48.134;-1.948;2023-07-02T07:36:12;3.80;;;1.00;;
74519;SDS011;63002;48.134;-1.948;2023-07-02T07:38:39;4.20;;;1.05;;
74519;SDS011;63002;48.134;-1.948;2023-07-02T07:41:04;3.97;;;1.10;;
74519;SDS011;63002;48.134;-1.948;2023-07-02T07:43:30;2.90;;;0.85;;
74519;SDS011;63002;48.134;-1.948;2023-07-02T07:45:56;4.17;;;0.97;;
74519;SDS011;63002;48.134;-1.948;2023-07-02T07:48:22;4.63;;;1.15;;
74519;SDS011;63002;48.134;-1.948;2023-07-02T07:50:47;4.70;;;1.23;;
74519;SDS011;63002;48.134;-1.948;2023-07-02T07:53:14;6.10;;;1.35;;
74519;SDS011;63002;48.134;-1.948;2023-07-02T07:55:39;10.90;;;1.70;;
74519;SDS011;63002;48.134;-1.948;2023-07-02T07:58:05;15.47;;;3.00;;
74519;SDS011;63002;48.134;-1.948;2023-07-02T08:00:31;9.55;;;2.22;;
74519;SDS011;63002;48.134;-1.948;2023-07-02T08:02:56;9.98;;;1.73;;
74519;SDS011;63002;48.134;-1.948;2023-07-02T08:05:22;13.98;;;2.15;;
74519;SDS011;63002;48.134;-1.948;2023-07-02T08:07:48;12.93;;;2.73;;
74519;SDS011;63002;48.134;-1.948;2023-07-02T08:10:14;12.85;;;2.42;;
74519;SDS011;63002;48.134;-1.948;2023-07-02T08:12:39;10.33;;;1.90;;
74519;SDS011;63002;48.134;-1.948;2023-07-02T08:15:05;10.68;;;1.95;;
74519;SDS011;63002;48.134;-1.948;2023-07-02T08:17:31;8.85;;;2.13;;
74519;SDS011;63002;48.134;-1.948;2023-07-02T08:19:57;10.18;;;2.22;;
74519;SDS011;63002;48.134;-1.948;2023-07-02T08:22:23;8.85;;;2.40;;
74519;SDS011;63002;48.134;-1.948;2023-07-02T08:24:49;8.87;;;2.37;;
74519;SDS011;63002;48.134;-1.948;2023-07-02T08:27:15;13.52;;;3.28;;
74519;SDS011;63002;48.134;-1.948;2023-07-02T08:29:44;17.92;;;4.22;;
74519;SDS011;63002;48.134;-1.948;2023-07-02T08:32:11;15.35;;;4.05;;
74519;SDS011;63002;48.134;-1.948;2023-07-02T08:34:37;15.90;;;3.90;;
74519;SDS011;63002;48.134;-1.948;2023-07-02T08:37:03;15.15;;;3.70;;
74519;SDS011;63002;48.134;-1.948;2023-07-02T08:39:29;12.63;;;3.78;;
74519;SDS011;63002;48.134;-1.948;2023-07-02T08:41:54;11.20;;;3.23;;
74519;SDS011;63002;48.134;-1.948;2023-07-02T08:44:20;14.23;;;4.15;;
74519;SDS011;63002;48.134;-1.948;2023-07-02T08:46:47;15.03;;;4.10;;
74519;SDS011;63002;48.134;-1.948;2023-07-02T08:49:18;15.20;;;3.70;;
74519;SDS011;63002;48.134;-1.948;2023-07-02T08:51:44;9.90;;;3.17;;
74519;SDS011;63002;48.134;-1.948;2023-07-02T08:54:11;13.23;;;3.53;;
74519;SDS011;63002;48.134;-1.948;2023-07-02T08:56:36;10.70;;;3.30;;
74519;SDS011;63002;48.134;-1.948;2023-07-02T08:59:05;12.57;;;4.10;;
74519;SDS011;63002;48.134;-1.948;2023-07-02T09:01:44;10.95;;;3.40;;
74519;SDS011;63002;48.134;-1.948;2023-07-02T09:04:18;11.63;;;3.25;;
74519;SDS011;63002;48.134;-1.948;2023-07-02T09:06:45;11.30;;;3.90;;
74519;SDS011;63002;48.134;-1.948;2023-07-02T09:09:16;11.50;;;3.53;;
74519;SDS011;63002;48.134;-1.948;2023-07-02T09:11:50;10.88;;;3.13;;
74519;SDS011;63002;48.134;-1.948;2023-07-02T09:17:01;11.48;;;3.35;;
74519;SDS011;63002;48.134;-1.948;2023-07-02T09:19:28;11.65;;;3.72;;
74519;SDS011;63002;48.134;-1.948;2023-07-02T09:21:56;12.77;;;3.80;;
74519;SDS011;63002;48.134;-1.948;2023-07-02T09:24:26;12.27;;;3.78;;
74519;SDS011;63002;48.134;-1.948;2023-07-02T09:26:57;12.98;;;3.90;;
74519;SDS011;63002;48.134;-1.948;2023-07-02T09:31:50;19.50;;;5.07;;
74519;SDS011;63002;48.134;-1.948;2023-07-02T09:34:16;19.90;;;5.00;;
74519;SDS011;63002;48.134;-1.948;2023-07-02T09:36:42;18.67;;;4.90;;
74519;SDS011;63002;48.134;-1.948;2023-07-02T09:39:11;25.58;;;4.60;;
74519;SDS011;63002;48.134;-1.948;2023-07-02T09:41:50;18.88;;;5.10;;
74519;SDS011;63002;48.134;-1.948;2023-07-02T09:44:16;15.90;;;4.30;;
74519;SDS011;63002;48.134;-1.948;2023-07-02T09:46:45;18.35;;;5.28;;
74519;SDS011;63002;48.134;-1.948;2023-07-02T09:49:21;20.42;;;5.07;;
74519;SDS011;63002;48.134;-1.948;2023-07-02T09:51:48;22.60;;;4.63;;
74519;SDS011;63002;48.134;-1.948;2023-07-02T09:54:14;21.07;;;4.83;;
74519;SDS011;63002;48.134;-1.948;2023-07-02T09:56:40;18.48;;;4.90;;
74519;SDS011;63002;48.134;-1.948;2023-07-02T09:59:06;19.73;;;4.82;;
74519;SDS011;63002;48.134;-1.948;2023-07-02T10:01:32;16.10;;;5.00;;
74519;SDS011;63002;48.134;-1.948;2023-07-02T10:03:58;14.02;;;4.22;;
74519;SDS011;63002;48.134;-1.948;2023-07-02T10:06:46;16.10;;;4.10;;
74519;SDS011;63002;48.134;-1.948;2023-07-02T10:09:12;21.05;;;4.78;;
74519;SDS011;63002;48.134;-1.948;2023-07-02T10:11:38;14.23;;;3.87;;
74519;SDS011;63002;48.134;-1.948;2023-07-02T10:14:04;22.17;;;4.28;;
74519;SDS011;63002;48.134;-1.948;2023-07-02T10:16:30;18.23;;;4.80;;
74519;SDS011;63002;48.134;-1.948;2023-07-02T10:19:12;23.27;;;4.88;;
74519;SDS011;63002;48.134;-1.948;2023-07-02T10:21:38;18.67;;;5.00;;
74519;SDS011;63002;48.134;-1.948;2023-07-02T10:24:13;25.50;;;4.68;;
74519;SDS011;63002;48.134;-1.948;2023-07-02T10:27:00;22.60;;;5.47;;
74519;SDS011;63002;48.134;-1.948;2023-07-02T10:29:27;19.15;;;4.55;;
74519;SDS011;63002;48.134;-1.948;2023-07-02T10:31:54;20.25;;;4.32;;
74519;SDS011;63002;48.134;-1.948;2023-07-02T10:34:28;21.95;;;5.25;;
74519;SDS011;63002;48.134;-1.948;2023-07-02T10:36:59;20.35;;;4.78;;
74519;SDS011;63002;48.134;-1.948;2023-07-02T10:39:25;21.90;;;4.53;;
74519;SDS011;63002;48.134;-1.948;2023-07-02T10:41:51;16.42;;;5.13;;
74519;SDS011;63002;48.134;-1.948;2023-07-02T10:44:18;17.45;;;4.93;;
74519;SDS011;63002;48.134;-1.948;2023-07-02T10:46:47;18.47;;;4.80;;
74519;SDS011;63002;48.134;-1.948;2023-07-02T10:49:14;23.33;;;5.93;;
74519;SDS011;63002;48.134;-1.948;2023-07-02T10:51:42;19.85;;;5.45;;
74519;SDS011;63002;48.134;-1.948;2023-07-02T10:54:08;21.13;;;6.00;;
74519;SDS011;63002;48.134;-1.948;2023-07-02T10:56:34;21.38;;;5.43;;
74519;SDS011;63002;48.134;-1.948;2023-07-02T10:59:00;20.13;;;5.28;;
74519;SDS011;63002;48.134;-1.948;2023-07-02T11:04:03;19.40;;;5.30;;
74519;SDS011;63002;48.134;-1.948;2023-07-02T11:06:30;16.75;;;4.80;;
74519;SDS011;63002;48.134;-1.948;2023-07-02T11:08:57;17.80;;;5.45;;
74519;SDS011;63002;48.134;-1.948;2023-07-02T11:11:24;18.33;;;5.03;;
74519;SDS011;63002;48.134;-1.948;2023-07-02T11:13:51;16.85;;;5.00;;
74519;SDS011;63002;48.134;-1.948;2023-07-02T11:19:16;17.67;;;5.22;;
74519;SDS011;63002;48.134;-1.948;2023-07-02T11:21:49;18.80;;;5.63;;
74519;SDS011;63002;48.134;-1.948;2023-07-02T11:24:25;20.92;;;6.07;;
74519;SDS011;63002;48.134;-1.948;2023-07-02T11:26:52;17.50;;;5.00;;
74519;SDS011;63002;48.134;-1.948;2023-07-02T11:29:18;27.23;;;7.07;;
74519;SDS011;63002;48.134;-1.948;2023-07-02T11:31:45;25.48;;;6.25;;
74519;SDS011;63002;48.134;-1.948;2023-07-02T11:34:11;27.93;;;6.60;;
74519;SDS011;63002;48.134;-1.948;2023-07-02T11:36:41;35.00;;;14.40;;
74519;SDS011;63002;48.134;-1.948;2023-07-02T11:39:06;123.72;;;28.90;;
74519;SDS011;63002;48.134;-1.948;2023-07-02T11:41:36;89.23;;;24.30;;
74519;SDS011;63002;48.134;-1.948;2023-07-02T11:44:05;77.93;;;20.83;;
74519;SDS011;63002;48.134;-1.948;2023-07-02T11:46:31;152.45;;;33.88;;
74519;SDS011;63002;48.134;-1.948;2023-07-02T11:48:59;119.63;;;26.65;;
74519;SDS011;63002;48.134;-1.948;2023-07-02T11:51:25;89.22;;;23.45;;
74519;SDS011;63002;48.134;-1.948;2023-07-02T11:53:51;86.95;;;20.80;;
74519;SDS011;63002;48.134;-1.948;2023-07-02T11:56:17;263.00;;;55.80;;
74519;SDS011;63002;48.134;-1.948;2023-07-02T11:58:42;194.75;;;44.38;;
74519;SDS011;63002;48.134;-1.948;2023-07-02T12:01:08;202.83;;;45.60;;
74519;SDS011;63002;48.134;-1.948;2023-07-02T12:03:34;189.20;;;42.33;;
74519;SDS011;63002;48.134;-1.948;2023-07-02T12:06:00;193.17;;;42.67;;
74519;SDS011;63002;48.134;-1.948;2023-07-02T12:08:25;180.43;;;39.35;;
74519;SDS011;63002;48.134;-1.948;2023-07-02T12:10:51;162.10;;;36.38;;
74519;SDS011;63002;48.134;-1.948;2023-07-02T12:13:19;134.60;;;30.93;;
74519;SDS011;63002;48.134;-1.948;2023-07-02T12:15:46;116.80;;;27.70;;
74519;SDS011;63002;48.134;-1.948;2023-07-02T12:18:12;103.68;;;25.23;;
74519;SDS011;63002;48.134;-1.948;2023-07-02T12:20:39;90.78;;;21.85;;
74519;SDS011;63002;48.134;-1.948;2023-07-02T12:23:05;73.43;;;19.63;;
74519;SDS011;63002;48.134;-1.948;2023-07-02T12:25:31;65.47;;;17.70;;
74519;SDS011;63002;48.134;-1.948;2023-07-02T12:27:57;57.40;;;16.70;;
74519;SDS011;63002;48.134;-1.948;2023-07-02T12:30:22;55.93;;;15.07;;
74519;SDS011;63002;48.134;-1.948;2023-07-02T12:32:48;48.03;;;13.68;;
74519;SDS011;63002;48.134;-1.948;2023-07-02T12:35:14;58.73;;;13.87;;
74519;SDS011;63002;48.134;-1.948;2023-07-02T12:37:47;50.05;;;13.68;;
74519;SDS011;63002;48.134;-1.948;2023-07-02T12:40:17;55.50;;;14.38;;
74519;SDS011;63002;48.134;-1.948;2023-07-02T12:42:44;58.83;;;14.67;;
74519;SDS011;63002;48.134;-1.948;2023-07-02T12:45:13;54.15;;;14.75;;
74519;SDS011;63002;48.134;-1.948;2023-07-02T12:47:40;48.97;;;14.35;;
74519;SDS011;63002;48.134;-1.948;2023-07-02T12:50:07;49.15;;;14.52;;
74519;SDS011;63002;48.134;-1.948;2023-07-02T12:52:33;52.17;;;15.52;;
74519;SDS011;63002;48.134;-1.948;2023-07-02T12:55:00;48.90;;;13.63;;
74519;SDS011;63002;48.134;-1.948;2023-07-02T12:57:28;47.38;;;13.80;;
74519;SDS011;63002;48.134;-1.948;2023-07-02T12:59:54;47.42;;;15.05;;
74519;SDS011;63002;48.134;-1.948;2023-07-02T13:02:23;47.00;;;15.18;;
74519;SDS011;63002;48.134;-1.948;2023-07-02T13:04:50;39.65;;;12.98;;
74519;SDS011;63002;48.134;-1.948;2023-07-02T13:07:16;43.57;;;13.47;;
74519;SDS011;63002;48.134;-1.948;2023-07-02T13:09:44;39.35;;;12.95;;
74519;SDS011;63002;48.134;-1.948;2023-07-02T13:12:10;38.80;;;13.38;;
74519;SDS011;63002;48.134;-1.948;2023-07-02T13:14:37;35.20;;;12.05;;
74519;SDS011;63002;48.134;-1.948;2023-07-02T13:17:03;34.55;;;11.93;;
74519;SDS011;63002;48.134;-1.948;2023-07-02T13:19:30;36.23;;;11.73;;
74519;SDS011;63002;48.134;-1.948;2023-07-02T13:21:59;36.28;;;10.77;;
74519;SDS011;63002;48.134;-1.948;2023-07-02T13:24:31;31.92;;;10.15;;
74519;SDS011;63002;48.134;-1.948;2023-07-02T13:27:02;31.65;;;10.55;;
74519;SDS011;63002;48.134;-1.948;2023-07-02T13:29:32;36.55;;;10.95;;
74519;SDS011;63002;48.134;-1.948;2023-07-02T13:31:58;31.67;;;10.07;;
74519;SDS011;63002;48.134;-1.948;2023-07-02T13:34:24;27.05;;;9.77;;
74519;SDS011;63002;48.134;-1.948;2023-07-02T13:36:50;30.20;;;8.90;;
74519;SDS011;63002;48.134;-1.948;2023-07-02T13:39:17;28.92;;;9.13;;
74519;SDS011;63002;48.134;-1.948;2023-07-02T13:41:44;24.75;;;8.27;;
74519;SDS011;63002;48.134;-1.948;2023-07-02T13:44:10;28.52;;;9.15;;
74519;SDS011;63002;48.134;-1.948;2023-07-02T13:46:37;21.65;;;7.90;;
74519;SDS011;63002;48.134;-1.948;2023-07-02T13:49:03;25.63;;;7.88;;
74519;SDS011;63002;48.134;-1.948;2023-07-02T13:51:29;23.53;;;7.53;;
74519;SDS011;63002;48.134;-1.948;2023-07-02T13:53:55;25.23;;;7.80;;
74519;SDS011;63002;48.134;-1.948;2023-07-02T13:56:21;20.70;;;7.13;;
74519;SDS011;63002;48.134;-1.948;2023-07-02T13:58:58;19.93;;;6.50;;
74519;SDS011;63002;48.134;-1.948;2023-07-02T14:01:25;19.77;;;7.45;;
74519;SDS011;63002;48.134;-1.948;2023-07-02T14:03:51;17.67;;;6.53;;
74519;SDS011;63002;48.134;-1.948;2023-07-02T14:06:19;19.65;;;6.25;;
74519;SDS011;63002;48.134;-1.948;2023-07-02T14:08:45;17.55;;;6.68;;
74519;SDS011;63002;48.134;-1.948;2023-07-02T14:11:11;19.67;;;6.35;;
74519;SDS011;63002;48.134;-1.948;2023-07-02T14:13:37;19.00;;;6.82;;
74519;SDS011;63002;48.134;-1.948;2023-07-02T14:16:04;17.63;;;6.10;;
74519;SDS011;63002;48.134;-1.948;2023-07-02T14:18:30;17.17;;;5.83;;
74519;SDS011;63002;48.134;-1.948;2023-07-02T14:20:56;14.73;;;5.82;;
74519;SDS011;63002;48.134;-1.948;2023-07-02T14:23:21;17.60;;;5.33;;
74519;SDS011;63002;48.134;-1.948;2023-07-02T14:25:47;15.00;;;4.80;;
74519;SDS011;63002;48.134;-1.948;2023-07-02T14:28:13;17.80;;;5.63;;
74519;SDS011;63002;48.134;-1.948;2023-07-02T14:30:42;13.70;;;4.90;;
74519;SDS011;63002;48.134;-1.948;2023-07-02T14:33:08;14.40;;;5.50;;
74519;SDS011;63002;48.134;-1.948;2023-07-02T14:35:34;14.57;;;5.20;;
74519;SDS011;63002;48.134;-1.948;2023-07-02T14:38:01;13.38;;;4.72;;
74519;SDS011;63002;48.134;-1.948;2023-07-02T14:40:27;13.40;;;4.70;;
74519;SDS011;63002;48.134;-1.948;2023-07-02T14:42:53;14.45;;;5.40;;
74519;SDS011;63002;48.134;-1.948;2023-07-02T14:45:20;14.13;;;3.92;;
74519;SDS011;63002;48.134;-1.948;2023-07-02T14:47:46;13.10;;;4.47;;
74519;SDS011;63002;48.134;-1.948;2023-07-02T14:50:12;13.35;;;4.13;;
74519;SDS011;63002;48.134;-1.948;2023-07-02T14:52:37;13.13;;;4.10;;
74519;SDS011;63002;48.134;-1.948;2023-07-02T14:55:03;13.15;;;4.00;;
74519;SDS011;63002;48.134;-1.948;2023-07-02T14:57:29;14.83;;;4.10;;
74519;SDS011;63002;48.134;-1.948;2023-07-02T14:59:55;11.95;;;4.20;;
74519;SDS011;63002;48.134;-1.948;2023-07-02T15:02:21;11.82;;;4.10;;
74519;SDS011;63002;48.134;-1.948;2023-07-02T15:04:47;13.52;;;4.05;;
74519;SDS011;63002;48.134;-1.948;2023-07-02T15:07:12;13.30;;;4.35;;
74519;SDS011;63002;48.134;-1.948;2023-07-02T15:09:38;15.77;;;4.20;;
74519;SDS011;63002;48.134;-1.948;2023-07-02T15:12:04;12.75;;;4.30;;
74519;SDS011;63002;48.134;-1.948;2023-07-02T15:14:30;12.87;;;3.90;;
74519;SDS011;63002;48.134;-1.948;2023-07-02T15:16:55;12.82;;;3.83;;
74519;SDS011;63002;48.134;-1.948;2023-07-02T15:19:21;12.27;;;3.77;;
74519;SDS011;63002;48.134;-1.948;2023-07-02T15:21:48;16.10;;;4.32;;
74519;SDS011;63002;48.134;-1.948;2023-07-02T15:24:14;32.50;;;7.18;;
74519;SDS011;63002;48.134;-1.948;2023-07-02T15:26:41;34.13;;;6.87;;
74519;SDS011;63002;48.134;-1.948;2023-07-02T15:29:07;26.20;;;6.05;;
74519;SDS011;63002;48.134;-1.948;2023-07-02T15:31:33;26.50;;;6.17;;
74519;SDS011;63002;48.134;-1.948;2023-07-02T15:34:02;23.33;;;6.25;;
74519;SDS011;63002;48.134;-1.948;2023-07-02T15:36:28;17.88;;;4.75;;
74519;SDS011;63002;48.134;-1.948;2023-07-02T15:38:56;15.45;;;4.50;;
74519;SDS011;63002;48.134;-1.948;2023-07-02T15:41:23;18.27;;;4.13;;
74519;SDS011;63002;48.134;-1.948;2023-07-02T15:43:49;14.23;;;4.25;;
74519;SDS011;63002;48.134;-1.948;2023-07-02T15:46:17;17.48;;;4.50;;
74519;SDS011;63002;48.134;-1.948;2023-07-02T15:48:43;15.70;;;4.00;;
74519;SDS011;63002;48.134;-1.948;2023-07-02T15:51:09;13.95;;;3.63;;
74519;SDS011;63002;48.134;-1.948;2023-07-02T15:53:36;14.43;;;3.75;;
74519;SDS011;63002;48.134;-1.948;2023-07-02T15:56:03;15.43;;;4.30;;
74519;SDS011;63002;48.134;-1.948;2023-07-02T15:58:30;15.05;;;4.40;;
74519;SDS011;63002;48.134;-1.948;2023-07-02T16:01:08;14.38;;;4.05;;
74519;SDS011;63002;48.134;-1.948;2023-07-02T16:03:35;12.25;;;3.90;;
74519;SDS011;63002;48.134;-1.948;2023-07-02T16:06:01;14.35;;;4.13;;
74519;SDS011;63002;48.134;-1.948;2023-07-02T16:08:27;12.60;;;3.83;;
74519;SDS011;63002;48.134;-1.948;2023-07-02T16:10:53;18.05;;;3.75;;
74519;SDS011;63002;48.134;-1.948;2023-07-02T16:13:20;13.67;;;3.50;;
74519;SDS011;63002;48.134;-1.948;2023-07-02T16:15:46;14.23;;;3.50;;
74519;SDS011;63002;48.134;-1.948;2023-07-02T16:18:12;11.17;;;3.67;;
74519;SDS011;63002;48.134;-1.948;2023-07-02T16:20:37;14.38;;;3.60;;
74519;SDS011;63002;48.134;-1.948;2023-07-02T16:23:04;12.63;;;3.20;;
74519;SDS011;63002;48.134;-1.948;2023-07-02T16:25:30;10.00;;;3.15;;
74519;SDS011;63002;48.134;-1.948;2023-07-02T16:27:57;12.70;;;4.25;;
74519;SDS011;63002;48.134;-1.948;2023-07-02T16:30:23;12.07;;;3.78;;
74519;SDS011;63002;48.134;-1.948;2023-07-02T16:32:50;9.90;;;3.28;;
74519;SDS011;63002;48.134;-1.948;2023-07-02T16:35:16;13.63;;;3.92;;
74519;SDS011;63002;48.134;-1.948;2023-07-02T16:37:42;11.43;;;3.55;;
74519;SDS011;63002;48.134;-1.948;2023-07-02T16:40:08;10.98;;;3.08;;
74519;SDS011;63002;48.134;-1.948;2023-07-02T16:42:34;10.65;;;3.45;;
74519;SDS011;63002;48.134;-1.948;2023-07-02T16:45:01;11.00;;;3.28;;
74519;SDS011;63002;48.134;-1.948;2023-07-02T16:47:31;10.27;;;3.70;;
74519;SDS011;63002;48.134;-1.948;2023-07-02T16:49:59;10.07;;;3.00;;
74519;SDS011;63002;48.134;-1.948;2023-07-02T16:52:25;13.15;;;3.75;;
74519;SDS011;63002;48.134;-1.948;2023-07-02T16:54:51;10.03;;;3.17;;
74519;SDS011;63002;48.134;-1.948;2023-07-02T16:57:16;10.80;;;3.38;;
74519;SDS011;63002;48.134;-1.948;2023-07-02T16:59:43;13.30;;;3.73;;
74519;SDS011;63002;48.134;-1.948;2023-07-02T17:02:08;12.65;;;3.75;;
74519;SDS011;63002;48.134;-1.948;2023-07-02T17:04:34;11.45;;;4.03;;
74519;SDS011;63002;48.134;-1.948;2023-07-02T17:07:00;11.47;;;3.57;;
74519;SDS011;63002;48.134;-1.948;2023-07-02T17:12:06;10.75;;;3.60;;
74519;SDS011;63002;48.134;-1.948;2023-07-02T17:14:35;10.57;;;3.78;;
74519;SDS011;63002;48.134;-1.948;2023-07-02T17:17:06;10.45;;;3.35;;
74519;SDS011;63002;48.134;-1.948;2023-07-02T17:19:34;11.35;;;3.55;;
74519;SDS011;63002;48.134;-1.948;2023-07-02T17:22:04;9.70;;;3.22;;
74519;SDS011;63002;48.134;-1.948;2023-07-02T17:24:36;9.75;;;3.53;;
74519;SDS011;63002;48.134;-1.948;2023-07-02T17:27:03;9.43;;;3.03;;
74519;SDS011;63002;48.134;-1.948;2023-07-02T17:29:30;10.15;;;3.47;;
74519;SDS011;63002;48.134;-1.948;2023-07-02T17:31:57;11.18;;;3.47;;
74519;SDS011;63002;48.134;-1.948;2023-07-02T17:34:24;9.35;;;3.00;;
74519;SDS011;63002;48.134;-1.948;2023-07-02T17:36:53;10.27;;;3.58;;
74519;SDS011;63002;48.134;-1.948;2023-07-02T17:39:23;11.55;;;3.38;;
74519;SDS011;63002;48.134;-1.948;2023-07-02T17:41:50;10.43;;;3.30;;
74519;SDS011;63002;48.134;-1.948;2023-07-02T17:44:18;11.03;;;3.60;;
74519;SDS011;63002;48.134;-1.948;2023-07-02T17:47:02;9.52;;;3.65;;
74519;SDS011;63002;48.134;-1.948;2023-07-02T17:49:33;9.23;;;3.20;;
74519;SDS011;63002;48.134;-1.948;2023-07-02T17:52:01;9.18;;;3.40;;
74519;SDS011;63002;48.134;-1.948;2023-07-02T17:54:31;12.27;;;3.55;;
74519;SDS011;63002;48.134;-1.948;2023-07-02T17:57:19;10.30;;;3.60;;
74519;SDS011;63002;48.134;-1.948;2023-07-02T17:59:46;10.50;;;3.80;;
74519;SDS011;63002;48.134;-1.948;2023-07-02T18:02:13;10.13;;;3.70;;
74519;SDS011;63002;48.134;-1.948;2023-07-02T18:04:39;12.52;;;4.03;;
74519;SDS011;63002;48.134;-1.948;2023-07-02T18:07:10;12.90;;;4.63;;
74519;SDS011;63002;48.134;-1.948;2023-07-02T18:09:39;15.43;;;4.68;;
74519;SDS011;63002;48.134;-1.948;2023-07-02T18:12:07;16.05;;;4.50;;
74519;SDS011;63002;48.134;-1.948;2023-07-02T18:14:34;11.82;;;4.72;;
74519;SDS011;63002;48.134;-1.948;2023-07-02T18:17:00;12.95;;;4.95;;
74519;SDS011;63002;48.134;-1.948;2023-07-02T18:19:26;14.00;;;5.43;;
74519;SDS011;63002;48.134;-1.948;2023-07-02T18:21:54;14.60;;;5.13;;
74519;SDS011;63002;48.134;-1.948;2023-07-02T18:24:29;13.13;;;5.00;;
74519;SDS011;63002;48.134;-1.948;2023-07-02T18:26:55;10.88;;;4.50;;
74519;SDS011;63002;48.134;-1.948;2023-07-02T18:29:21;13.23;;;5.07;;
74519;SDS011;63002;48.134;-1.948;2023-07-02T18:31:47;12.43;;;4.95;;
74519;SDS011;63002;48.134;-1.948;2023-07-02T18:34:14;12.63;;;4.82;;
74519;SDS011;63002;48.134;-1.948;2023-07-02T18:36:40;12.20;;;4.53;;
74519;SDS011;63002;48.134;-1.948;2023-07-02T18:39:09;11.70;;;4.03;;
74519;SDS011;63002;48.134;-1.948;2023-07-02T18:41:35;12.75;;;4.63;;
74519;SDS011;63002;48.134;-1.948;2023-07-02T18:44:01;13.77;;;4.63;;
74519;SDS011;63002;48.134;-1.948;2023-07-02T18:46:26;10.90;;;4.47;;
74519;SDS011;63002;48.134;-1.948;2023-07-02T18:48:52;21.50;;;5.30;;
74519;SDS011;63002;48.134;-1.948;2023-07-02T18:51:18;13.55;;;4.50;;
74519;SDS011;63002;48.134;-1.948;2023-07-02T18:53:44;14.73;;;4.57;;
74519;SDS011;63002;48.134;-1.948;2023-07-02T18:56:09;14.30;;;3.97;;
74519;SDS011;63002;48.134;-1.948;2023-07-02T18:58:36;13.60;;;4.60;;
74519;SDS011;63002;48.134;-1.948;2023-07-02T19:01:08;12.60;;;4.20;;
74519;SDS011;63002;48.134;-1.948;2023-07-02T19:03:36;13.38;;;4.68;;
74519;SDS011;63002;48.134;-1.948;2023-07-02T19:06:08;13.15;;;4.57;;
74519;SDS011;63002;48.134;-1.948;2023-07-02T19:08:36;11.50;;;4.00;;
74519;SDS011;63002;48.134;-1.948;2023-07-02T19:11:03;10.60;;;3.97;;
74519;SDS011;63002;48.134;-1.948;2023-07-02T19:13:30;10.70;;;4.30;;
74519;SDS011;63002;48.134;-1.948;2023-07-02T19:15:56;11.25;;;4.03;;
74519;SDS011;63002;48.134;-1.948;2023-07-02T19:18:22;9.03;;;3.53;;
74519;SDS011;63002;48.134;-1.948;2023-07-02T19:20:48;9.57;;;3.90;;
74519;SDS011;63002;48.134;-1.948;2023-07-02T19:23:15;11.13;;;4.43;;
74519;SDS011;63002;48.134;-1.948;2023-07-02T19:25:42;10.55;;;4.10;;
74519;SDS011;63002;48.134;-1.948;2023-07-02T19:28:09;9.48;;;4.00;;
74519;SDS011;63002;48.134;-1.948;2023-07-02T19:30:36;10.33;;;4.00;;
74519;SDS011;63002;48.134;-1.948;2023-07-02T19:33:02;10.63;;;4.03;;
74519;SDS011;63002;48.134;-1.948;2023-07-02T19:35:28;10.70;;;3.85;;
74519;SDS011;63002;48.134;-1.948;2023-07-02T19:37:54;9.52;;;3.60;;